sensor_id;sensor_type;location;lat;lon;timestamp;pressure;altitude;pressure_sealevel;temperature;humidity
77019;BME280;66044;53.142;17.962;2022-12-26T00:01:57;100919.39;;;6.04;78.89
77019;BME280;66044;53.142;17.962;2022-12-26T00:04:26;100913.58;;;6.04;78.90
77019;BME280;66044;53.142;17.962;2022-12-26T00:06:53;100903.97;;;6.05;78.96
77019;BME280;66044;53.142;17.962;2022-12-26T00:09:19;100883.77;;;6.04;78.80
77019;BME280;66044;53.142;17.962;2022-12-26T00:11:46;100872.91;;;6.00;78.97
77019;BME280;66044;53.142;17.962;2022-12-26T00:14:14;100865.99;;;5.98;79.07
77019;BME280;66044;53.142;17.962;2022-12-26T00:16:42;100853.11;;;5.97;79.14
77019;BME280;66044;53.142;17.962;2022-12-26T00:19:09;100858.61;;;5.97;79.05
77019;BME280;66044;53.142;17.962;2022-12-26T00:21:36;100859.29;;;5.98;79.19
77019;BME280;66044;53.142;17.962;2022-12-26T00:24:03;100855.20;;;5.96;79.29
77019;BME280;66044;53.142;17.962;2022-12-26T00:26:32;100851.96;;;5.93;79.29
77019;BME280;66044;53.142;17.962;2022-12-26T00:28:58;100832.83;;;5.92;79.33
77019;BME280;66044;53.142;17.962;2022-12-26T00:31:27;100829.35;;;5.93;79.40
77019;BME280;66044;53.142;17.962;2022-12-26T00:33:54;100821.83;;;5.93;79.26
77019;BME280;66044;53.142;17.962;2022-12-26T00:36:23;100818.59;;;5.93;79.40
77019;BME280;66044;53.142;17.962;2022-12-26T00:38:50;100821.42;;;5.92;79.45
77019;BME280;66044;53.142;17.962;2022-12-26T00:41:18;100817.54;;;5.92;79.36
77019;BME280;66044;53.142;17.962;2022-12-26T00:43:46;100811.46;;;5.91;79.53
77019;BME280;66044;53.142;17.962;2022-12-26T00:46:13;100799.53;;;5.90;79.61
77019;BME280;66044;53.142;17.962;2022-12-26T00:48:39;100783.69;;;5.91;79.60
77019;BME280;66044;53.142;17.962;2022-12-26T00:51:05;100778.08;;;5.92;79.49
77019;BME280;66044;53.142;17.962;2022-12-26T00:53:32;100770.44;;;5.93;79.55
77019;BME280;66044;53.142;17.962;2022-12-26T00:55:59;100760.15;;;5.92;79.49
77019;BME280;66044;53.142;17.962;2022-12-26T00:58:25;100762.28;;;5.93;79.59
77019;BME280;66044;53.142;17.962;2022-12-26T01:00:52;100769.48;;;5.92;79.71
77019;BME280;66044;53.142;17.962;2022-12-26T01:03:18;100777.97;;;5.92;79.82
77019;BME280;66044;53.142;17.962;2022-12-26T01:05:49;100782.39;;;5.95;79.61
77019;BME280;66044;53.142;17.962;2022-12-26T01:08:17;100779.85;;;5.97;79.72
77019;BME280;66044;53.142;17.962;2022-12-26T01:10:45;100776.27;;;5.98;79.71
77019;BME280;66044;53.142;17.962;2022-12-26T01:13:12;100774.53;;;6.00;79.65
77019;BME280;66044;53.142;17.962;2022-12-26T01:15:39;100771.77;;;5.99;79.84
77019;BME280;66044;53.142;17.962;2022-12-26T01:18:06;100780.48;;;6.01;79.65
77019;BME280;66044;53.142;17.962;2022-12-26T01:20:32;100778.24;;;6.03;79.77
77019;BME280;66044;53.142;17.962;2022-12-26T01:22:58;100774.65;;;6.05;79.85
77019;BME280;66044;53.142;17.962;2022-12-26T01:25:25;100763.77;;;6.06;79.86
77019;BME280;66044;53.142;17.962;2022-12-26T01:27:51;100762.22;;;6.05;79.73
77019;BME280;66044;53.142;17.962;2022-12-26T01:30:18;100754.66;;;6.08;79.78
77019;BME280;66044;53.142;17.962;2022-12-26T01:32:44;100738.29;;;6.11;79.68
77019;BME280;66044;53.142;17.962;2022-12-26T01:35:11;100737.58;;;6.11;79.91
77019;BME280;66044;53.142;17.962;2022-12-26T01:37:37;100731.48;;;6.10;79.77
77019;BME280;66044;53.142;17.962;2022-12-26T01:40:04;100719.70;;;6.09;79.74
77019;BME280;66044;53.142;17.962;2022-12-26T01:42:37;100716.79;;;6.10;79.86
77019;BME280;66044;53.142;17.962;2022-12-26T01:45:20;100706.49;;;6.10;79.82
77019;BME280;66044;53.142;17.962;2022-12-26T01:48:15;100707.84;;;6.10;79.97
77019;BME280;66044;53.142;17.962;2022-12-26T01:50:50;100697.50;;;6.10;79.96
77019;BME280;66044;53.142;17.962;2022-12-26T01:53:21;100683.94;;;6.10;79.89
77019;BME280;66044;53.142;17.962;2022-12-26T01:55:54;100679.73;;;6.10;79.96
77019;BME280;66044;53.142;17.962;2022-12-26T01:58:26;100664.45;;;6.09;79.97
77019;BME280;66044;53.142;17.962;2022-12-26T02:00:55;100660.23;;;6.07;79.97
77019;BME280;66044;53.142;17.962;2022-12-26T02:03:21;100663.71;;;6.07;80.04
77019;BME280;66044;53.142;17.962;2022-12-26T02:06:07;100653.69;;;6.06;80.12
77019;BME280;66044;53.142;17.962;2022-12-26T02:08:36;100641.85;;;6.06;79.96
77019;BME280;66044;53.142;17.962;2022-12-26T02:11:17;100640.30;;;6.06;80.15
77019;BME280;66044;53.142;17.962;2022-12-26T02:13:46;100637.59;;;6.06;80.10
77019;BME280;66044;53.142;17.962;2022-12-26T02:16:14;100632.84;;;6.06;80.12
77019;BME280;66044;53.142;17.962;2022-12-26T02:18:41;100622.77;;;6.06;80.31
77019;BME280;66044;53.142;17.962;2022-12-26T02:21:34;100611.24;;;6.06;80.13
77019;BME280;66044;53.142;17.962;2022-12-26T02:27:09;100594.75;;;6.04;80.36
77019;BME280;66044;53.142;17.962;2022-12-26T02:30:00;100583.70;;;6.05;80.41
77019;BME280;66044;53.142;17.962;2022-12-26T02:40:37;100572.83;;;6.07;80.40
77019;BME280;66044;53.142;17.962;2022-12-26T02:43:26;100556.13;;;6.08;80.42
77019;BME280;66044;53.142;17.962;2022-12-26T02:48:48;100538.06;;;6.07;80.58
77019;BME280;66044;53.142;17.962;2022-12-26T02:54:14;100532.45;;;6.08;80.56
77019;BME280;66044;53.142;17.962;2022-12-26T02:57:17;100534.39;;;6.09;80.65
77019;BME280;66044;53.142;17.962;2022-12-26T03:00:18;100527.69;;;6.10;80.49
77019;BME280;66044;53.142;17.962;2022-12-26T03:03:25;100505.74;;;6.11;80.55
77019;BME280;66044;53.142;17.962;2022-12-26T03:06:14;100515.15;;;6.13;80.53
77019;BME280;66044;53.142;17.962;2022-12-26T03:09:07;100527.58;;;6.13;80.61
77019;BME280;66044;53.142;17.962;2022-12-26T03:12:07;100524.56;;;6.15;80.71
77019;BME280;66044;53.142;17.962;2022-12-26T03:14:56;100523.80;;;6.15;80.75
77019;BME280;66044;53.142;17.962;2022-12-26T03:17:39;100518.16;;;6.17;80.57
77019;BME280;66044;53.142;17.962;2022-12-26T03:20:14;100510.83;;;6.21;80.58
77019;BME280;66044;53.142;17.962;2022-12-26T03:22:48;100502.38;;;6.24;80.65
77019;BME280;66044;53.142;17.962;2022-12-26T03:25:22;100490.04;;;6.25;80.51
77019;BME280;66044;53.142;17.962;2022-12-26T03:28:08;100495.14;;;6.26;80.68
77019;BME280;66044;53.142;17.962;2022-12-26T03:30:35;100493.16;;;6.29;80.55
77019;BME280;66044;53.142;17.962;2022-12-26T03:33:45;100497.02;;;6.32;80.49
77019;BME280;66044;53.142;17.962;2022-12-26T03:36:37;100489.83;;;6.35;80.50
77019;BME280;66044;53.142;17.962;2022-12-26T03:45:37;100491.08;;;6.42;80.56
77019;BME280;66044;53.142;17.962;2022-12-26T03:48:32;100491.97;;;6.48;80.55
77019;BME280;66044;53.142;17.962;2022-12-26T03:51:22;100487.05;;;6.48;80.37
77019;BME280;66044;53.142;17.962;2022-12-26T03:54:14;100477.00;;;6.49;80.72
77019;BME280;66044;53.142;17.962;2022-12-26T03:57:05;100480.24;;;6.49;80.64
77019;BME280;66044;53.142;17.962;2022-12-26T04:00:01;100481.03;;;6.53;80.35
77019;BME280;66044;53.142;17.962;2022-12-26T04:02:49;100482.92;;;6.60;80.51
77019;BME280;66044;53.142;17.962;2022-12-26T04:05:37;100480.74;;;6.67;80.35
77019;BME280;66044;53.142;17.962;2022-12-26T04:08:32;100477.27;;;6.69;79.90
77019;BME280;66044;53.142;17.962;2022-12-26T04:11:19;100476.23;;;6.70;80.14
77019;BME280;66044;53.142;17.962;2022-12-26T04:14:46;100485.70;;;6.72;80.07
77019;BME280;66044;53.142;17.962;2022-12-26T04:17:50;100475.41;;;6.76;80.14
77019;BME280;66044;53.142;17.962;2022-12-26T04:21:02;100486.42;;;6.75;80.05
77019;BME280;66044;53.142;17.962;2022-12-26T04:23:36;100467.38;;;6.72;80.36
77019;BME280;66044;53.142;17.962;2022-12-26T04:26:35;100462.09;;;6.72;80.31
77019;BME280;66044;53.142;17.962;2022-12-26T04:29:21;100456.40;;;6.71;80.05
77019;BME280;66044;53.142;17.962;2022-12-26T04:36:08;100444.55;;;6.69;80.26
77019;BME280;66044;53.142;17.962;2022-12-26T04:38:29;100442.68;;;6.71;80.15
77019;BME280;66044;53.142;17.962;2022-12-26T04:41:17;100444.75;;;6.74;80.21
77019;BME280;66044;53.142;17.962;2022-12-26T04:44:04;100433.52;;;6.75;80.30
77019;BME280;66044;53.142;17.962;2022-12-26T04:46:40;100432.16;;;6.74;80.35
77019;BME280;66044;53.142;17.962;2022-12-26T04:49:11;100425.63;;;6.75;80.21
77019;BME280;66044;53.142;17.962;2022-12-26T04:51:57;100414.14;;;6.79;80.34
77019;BME280;66044;53.142;17.962;2022-12-26T04:54:25;100408.20;;;6.81;79.98
77019;BME280;66044;53.142;17.962;2022-12-26T04:56:52;100409.57;;;6.80;80.47
77019;BME280;66044;53.142;17.962;2022-12-26T04:59:19;100418.39;;;6.80;80.27
77019;BME280;66044;53.142;17.962;2022-12-26T05:01:46;100406.42;;;6.81;80.35
77019;BME280;66044;53.142;17.962;2022-12-26T05:04:32;100400.52;;;6.84;80.25
77019;BME280;66044;53.142;17.962;2022-12-26T05:07:20;100401.76;;;6.87;80.34
77019;BME280;66044;53.142;17.962;2022-12-26T05:10:10;100386.55;;;6.91;80.06
77019;BME280;66044;53.142;17.962;2022-12-26T05:12:40;100386.99;;;6.92;80.23
77019;BME280;66044;53.142;17.962;2022-12-26T05:15:07;100375.19;;;6.94;80.14
77019;BME280;66044;53.142;17.962;2022-12-26T05:17:34;100398.91;;;6.96;80.40
77019;BME280;66044;53.142;17.962;2022-12-26T05:20:19;100397.84;;;7.02;80.43
77019;BME280;66044;53.142;17.962;2022-12-26T05:23:03;100390.48;;;7.08;80.21
77019;BME280;66044;53.142;17.962;2022-12-26T05:25:52;100393.63;;;7.10;80.34
77019;BME280;66044;53.142;17.962;2022-12-26T05:28:37;100382.70;;;7.11;79.98
77019;BME280;66044;53.142;17.962;2022-12-26T05:31:14;100373.87;;;7.12;79.94
77019;BME280;66044;53.142;17.962;2022-12-26T05:33:42;100373.97;;;7.17;80.20
77019;BME280;66044;53.142;17.962;2022-12-26T05:36:32;100380.84;;;7.21;80.14
77019;BME280;66044;53.142;17.962;2022-12-26T05:39:00;100381.72;;;7.22;79.84
77019;BME280;66044;53.142;17.962;2022-12-26T05:41:27;100368.56;;;7.25;80.10
77019;BME280;66044;53.142;17.962;2022-12-26T05:43:53;100371.30;;;7.28;80.09
77019;BME280;66044;53.142;17.962;2022-12-26T05:46:19;100367.17;;;7.36;80.05
77019;BME280;66044;53.142;17.962;2022-12-26T05:48:46;100360.44;;;7.43;79.97
77019;BME280;66044;53.142;17.962;2022-12-26T05:51:12;100365.03;;;7.45;79.86
77019;BME280;66044;53.142;17.962;2022-12-26T05:53:39;100355.63;;;7.48;79.96
77019;BME280;66044;53.142;17.962;2022-12-26T05:56:10;100369.46;;;7.48;80.14
77019;BME280;66044;53.142;17.962;2022-12-26T05:58:37;100361.23;;;7.53;79.65
77019;BME280;66044;53.142;17.962;2022-12-26T06:01:12;100350.05;;;7.56;79.97
77019;BME280;66044;53.142;17.962;2022-12-26T06:03:40;100361.33;;;7.55;79.77
77019;BME280;66044;53.142;17.962;2022-12-26T06:06:09;100344.96;;;7.58;79.62
77019;BME280;66044;53.142;17.962;2022-12-26T06:08:35;100355.11;;;7.58;80.06
77019;BME280;66044;53.142;17.962;2022-12-26T06:11:04;100346.56;;;7.63;79.79
77019;BME280;66044;53.142;17.962;2022-12-26T06:13:30;100348.08;;;7.66;79.78
77019;BME280;66044;53.142;17.962;2022-12-26T06:15:57;100359.30;;;7.66;79.81
77019;BME280;66044;53.142;17.962;2022-12-26T06:18:24;100360.14;;;7.68;79.86
77019;BME280;66044;53.142;17.962;2022-12-26T06:20:51;100361.52;;;7.71;80.03
77019;BME280;66044;53.142;17.962;2022-12-26T06:23:17;100359.93;;;7.76;79.65
77019;BME280;66044;53.142;17.962;2022-12-26T06:25:44;100353.81;;;7.80;79.83
77019;BME280;66044;53.142;17.962;2022-12-26T06:28:10;100351.36;;;7.81;79.61
77019;BME280;66044;53.142;17.962;2022-12-26T06:30:37;100349.11;;;7.81;79.43
77019;BME280;66044;53.142;17.962;2022-12-26T06:33:03;100342.14;;;7.78;79.71
77019;BME280;66044;53.142;17.962;2022-12-26T06:35:29;100342.41;;;7.78;79.57
77019;BME280;66044;53.142;17.962;2022-12-26T06:37:58;100343.42;;;7.80;79.60
77019;BME280;66044;53.142;17.962;2022-12-26T06:40:25;100336.42;;;7.84;79.50
77019;BME280;66044;53.142;17.962;2022-12-26T06:42:51;100327.95;;;7.87;79.53
77019;BME280;66044;53.142;17.962;2022-12-26T06:45:18;100332.45;;;7.89;79.49
77019;BME280;66044;53.142;17.962;2022-12-26T06:47:44;100333.50;;;7.91;79.38
77019;BME280;66044;53.142;17.962;2022-12-26T06:50:11;100338.58;;;7.93;79.87
77019;BME280;66044;53.142;17.962;2022-12-26T06:52:38;100336.82;;;7.95;79.48
77019;BME280;66044;53.142;17.962;2022-12-26T06:55:04;100330.45;;;7.99;79.71
77019;BME280;66044;53.142;17.962;2022-12-26T06:57:31;100331.71;;;8.03;79.42
77019;BME280;66044;53.142;17.962;2022-12-26T06:59:57;100327.30;;;8.06;79.42
77019;BME280;66044;53.142;17.962;2022-12-26T07:02:24;100318.52;;;8.06;79.76
77019;BME280;66044;53.142;17.962;2022-12-26T07:04:50;100323.33;;;8.08;79.37
77019;BME280;66044;53.142;17.962;2022-12-26T07:07:17;100325.89;;;8.10;79.34
77019;BME280;66044;53.142;17.962;2022-12-26T07:09:43;100328.23;;;8.12;79.51
77019;BME280;66044;53.142;17.962;2022-12-26T07:12:09;100321.34;;;8.17;79.33
77019;BME280;66044;53.142;17.962;2022-12-26T07:14:36;100319.96;;;8.21;79.23
77019;BME280;66044;53.142;17.962;2022-12-26T07:17:02;100315.94;;;8.23;78.93
77019;BME280;66044;53.142;17.962;2022-12-26T07:19:29;100313.20;;;8.27;79.12
77019;BME280;66044;53.142;17.962;2022-12-26T07:21:55;100317.84;;;8.28;78.83
77019;BME280;66044;53.142;17.962;2022-12-26T07:24:22;100317.64;;;8.27;78.96
77019;BME280;66044;53.142;17.962;2022-12-26T07:26:48;100323.84;;;8.27;79.10
77019;BME280;66044;53.142;17.962;2022-12-26T07:29:15;100328.27;;;8.27;78.98
77019;BME280;66044;53.142;17.962;2022-12-26T07:31:42;100330.59;;;8.30;79.02
77019;BME280;66044;53.142;17.962;2022-12-26T07:34:08;100332.89;;;8.34;78.96
77019;BME280;66044;53.142;17.962;2022-12-26T07:36:34;100330.89;;;8.38;78.86
77019;BME280;66044;53.142;17.962;2022-12-26T07:39:01;100332.20;;;8.41;79.00
77019;BME280;66044;53.142;17.962;2022-12-26T07:41:28;100331.79;;;8.43;78.89
77019;BME280;66044;53.142;17.962;2022-12-26T07:44:13;100331.73;;;8.43;78.90
77019;BME280;66044;53.142;17.962;2022-12-26T07:46:39;100324.73;;;8.42;78.91
77019;BME280;66044;53.142;17.962;2022-12-26T07:49:06;100319.66;;;8.43;78.87
77019;BME280;66044;53.142;17.962;2022-12-26T07:51:33;100313.65;;;8.46;78.87
77019;BME280;66044;53.142;17.962;2022-12-26T07:53:59;100313.56;;;8.50;78.96
77019;BME280;66044;53.142;17.962;2022-12-26T07:56:26;100316.11;;;8.53;78.84
77019;BME280;66044;53.142;17.962;2022-12-26T07:58:52;100317.52;;;8.56;78.91
77019;BME280;66044;53.142;17.962;2022-12-26T08:01:19;100319.73;;;8.59;78.93
77019;BME280;66044;53.142;17.962;2022-12-26T08:03:49;100320.08;;;8.63;78.85
77019;BME280;66044;53.142;17.962;2022-12-26T08:06:17;100315.48;;;8.67;78.83
77019;BME280;66044;53.142;17.962;2022-12-26T08:08:44;100313.91;;;8.69;78.92
77019;BME280;66044;53.142;17.962;2022-12-26T08:11:16;100302.77;;;8.72;78.92
77019;BME280;66044;53.142;17.962;2022-12-26T08:13:43;100308.78;;;8.73;78.95
77019;BME280;66044;53.142;17.962;2022-12-26T08:16:11;100311.86;;;8.77;78.88
77019;BME280;66044;53.142;17.962;2022-12-26T08:18:37;100313.85;;;8.83;79.02
77019;BME280;66044;53.142;17.962;2022-12-26T08:21:04;100319.40;;;8.88;78.86
77019;BME280;66044;53.142;17.962;2022-12-26T08:23:33;100319.52;;;8.91;78.98
77019;BME280;66044;53.142;17.962;2022-12-26T08:26:07;100313.52;;;8.94;79.11
77019;BME280;66044;53.142;17.962;2022-12-26T08:28:34;100316.02;;;8.97;78.97
77019;BME280;66044;53.142;17.962;2022-12-26T08:31:05;100313.02;;;9.05;78.99
77019;BME280;66044;53.142;17.962;2022-12-26T08:33:32;100317.89;;;9.12;78.89
77019;BME280;66044;53.142;17.962;2022-12-26T08:36:03;100316.73;;;9.20;78.89
77019;BME280;66044;53.142;17.962;2022-12-26T08:38:30;100316.69;;;9.28;78.68
77019;BME280;66044;53.142;17.962;2022-12-26T08:40:57;100322.81;;;9.32;78.76
77019;BME280;66044;53.142;17.962;2022-12-26T08:43:24;100323.73;;;9.34;78.79
77019;BME280;66044;53.142;17.962;2022-12-26T08:48:24;100318.65;;;9.46;78.64
77019;BME280;66044;53.142;17.962;2022-12-26T08:50:55;100315.33;;;9.51;78.58
77019;BME280;66044;53.142;17.962;2022-12-26T08:53:22;100319.30;;;9.55;78.46
77019;BME280;66044;53.142;17.962;2022-12-26T08:55:48;100321.40;;;9.56;78.56
77019;BME280;66044;53.142;17.962;2022-12-26T08:58:15;100330.90;;;9.56;78.39
77019;BME280;66044;53.142;17.962;2022-12-26T09:00:41;100331.61;;;9.59;78.50
77019;BME280;66044;53.142;17.962;2022-12-26T09:03:08;100335.42;;;9.64;78.28
77019;BME280;66044;53.142;17.962;2022-12-26T09:05:35;100337.31;;;9.69;78.31
77019;BME280;66044;53.142;17.962;2022-12-26T09:08:01;100337.81;;;9.75;78.28
77019;BME280;66044;53.142;17.962;2022-12-26T09:10:28;100339.97;;;9.80;78.17
77019;BME280;66044;53.142;17.962;2022-12-26T09:12:54;100343.40;;;9.83;78.28
77019;BME280;66044;53.142;17.962;2022-12-26T09:15:21;100342.15;;;9.85;77.92
77019;BME280;66044;53.142;17.962;2022-12-26T09:17:47;100342.84;;;9.87;78.05
77019;BME280;66044;53.142;17.962;2022-12-26T09:20:14;100337.65;;;9.92;78.04
77019;BME280;66044;53.142;17.962;2022-12-26T09:22:40;100335.71;;;9.94;77.92
77019;BME280;66044;53.142;17.962;2022-12-26T09:25:20;100336.08;;;9.93;77.83
77019;BME280;66044;53.142;17.962;2022-12-26T09:27:48;100340.52;;;9.93;77.80
77019;BME280;66044;53.142;17.962;2022-12-26T09:30:15;100332.27;;;9.95;77.89
77019;BME280;66044;53.142;17.962;2022-12-26T09:32:41;100325.13;;;9.99;77.74
77019;BME280;66044;53.142;17.962;2022-12-26T09:35:08;100324.96;;;10.03;77.66
77019;BME280;66044;53.142;17.962;2022-12-26T09:37:34;100323.91;;;10.06;77.81
77019;BME280;66044;53.142;17.962;2022-12-26T09:40:01;100326.30;;;10.09;77.87
77019;BME280;66044;53.142;17.962;2022-12-26T09:42:43;100330.29;;;10.11;77.73
77019;BME280;66044;53.142;17.962;2022-12-26T09:45:17;100321.04;;;10.14;77.62
77019;BME280;66044;53.142;17.962;2022-12-26T09:50:32;100313.35;;;10.18;77.53
77019;BME280;66044;53.142;17.962;2022-12-26T09:53:12;100315.02;;;10.17;77.53
77019;BME280;66044;53.142;17.962;2022-12-26T09:55:58;100317.45;;;10.17;77.51
77019;BME280;66044;53.142;17.962;2022-12-26T09:58:33;100313.27;;;10.17;77.62
77019;BME280;66044;53.142;17.962;2022-12-26T10:03:29;100313.59;;;10.26;77.45
77019;BME280;66044;53.142;17.962;2022-12-26T10:06:16;100319.10;;;10.33;77.49
77019;BME280;66044;53.142;17.962;2022-12-26T10:09:17;100321.67;;;10.38;77.22
77019;BME280;66044;53.142;17.962;2022-12-26T10:12:12;100318.96;;;10.44;77.50
77019;BME280;66044;53.142;17.962;2022-12-26T10:14:57;100318.48;;;10.46;76.98
77019;BME280;66044;53.142;17.962;2022-12-26T10:17:50;100318.91;;;10.47;76.87
77019;BME280;66044;53.142;17.962;2022-12-26T10:20:36;100312.92;;;10.50;76.70
77019;BME280;66044;53.142;17.962;2022-12-26T10:26:18;100308.71;;;10.71;76.39
77019;BME280;66044;53.142;17.962;2022-12-26T10:28:50;100302.36;;;10.81;76.30
77019;BME280;66044;53.142;17.962;2022-12-26T10:31:26;100306.73;;;10.89;76.05
77019;BME280;66044;53.142;17.962;2022-12-26T10:33:59;100307.73;;;10.94;76.08
77019;BME280;66044;53.142;17.962;2022-12-26T10:36:36;100307.91;;;10.99;75.75
77019;BME280;66044;53.142;17.962;2022-12-26T10:39:14;100312.14;;;11.07;75.59
77019;BME280;66044;53.142;17.962;2022-12-26T10:41:46;100308.01;;;11.20;75.74
77019;BME280;66044;53.142;17.962;2022-12-26T10:44:14;100312.95;;;11.29;75.67
77019;BME280;66044;53.142;17.962;2022-12-26T10:49:20;100305.64;;;11.39;75.13
77019;BME280;66044;53.142;17.962;2022-12-26T10:51:49;100312.55;;;11.49;75.10
77019;BME280;66044;53.142;17.962;2022-12-26T10:54:16;100305.52;;;11.53;74.94
77019;BME280;66044;53.142;17.962;2022-12-26T10:56:45;100301.44;;;11.53;74.92
77019;BME280;66044;53.142;17.962;2022-12-26T10:59:21;100301.30;;;11.50;74.73
77019;BME280;66044;53.142;17.962;2022-12-26T11:01:49;100299.40;;;11.48;75.03
77019;BME280;66044;53.142;17.962;2022-12-26T11:04:22;100300.23;;;11.48;74.56
77019;BME280;66044;53.142;17.962;2022-12-26T11:06:50;100305.09;;;11.44;74.32
77019;BME280;66044;53.142;17.962;2022-12-26T11:09:33;100309.16;;;11.41;74.67
77019;BME280;66044;53.142;17.962;2022-12-26T11:12:01;100306.67;;;11.37;74.36
77019;BME280;66044;53.142;17.962;2022-12-26T11:14:37;100307.41;;;11.36;74.42
77019;BME280;66044;53.142;17.962;2022-12-26T11:17:30;100302.43;;;11.34;73.89
77019;BME280;66044;53.142;17.962;2022-12-26T11:22:39;100295.84;;;11.26;73.83
77019;BME280;66044;53.142;17.962;2022-12-26T11:27:41;100293.89;;;11.25;74.00
77019;BME280;66044;53.142;17.962;2022-12-26T11:32:43;100296.41;;;11.28;73.66
77019;BME280;66044;53.142;17.962;2022-12-26T11:35:16;100298.03;;;11.28;73.72
77019;BME280;66044;53.142;17.962;2022-12-26T11:37:45;100304.38;;;11.30;73.44
77019;BME280;66044;53.142;17.962;2022-12-26T11:40:35;100309.58;;;11.32;73.59
77019;BME280;66044;53.142;17.962;2022-12-26T11:43:12;100312.09;;;11.31;73.42
77019;BME280;66044;53.142;17.962;2022-12-26T11:45:42;100308.25;;;11.28;73.55
77019;BME280;66044;53.142;17.962;2022-12-26T11:48:24;100312.91;;;11.24;73.69
77019;BME280;66044;53.142;17.962;2022-12-26T11:50:52;100314.59;;;11.21;73.19
77019;BME280;66044;53.142;17.962;2022-12-26T11:53:21;100316.06;;;11.19;73.37
77019;BME280;66044;53.142;17.962;2022-12-26T11:55:58;100322.02;;;11.16;73.67
77019;BME280;66044;53.142;17.962;2022-12-26T11:58:28;100319.42;;;11.11;73.19
77019;BME280;66044;53.142;17.962;2022-12-26T12:03:42;100334.98;;;11.03;73.66
77019;BME280;66044;53.142;17.962;2022-12-26T12:09:31;100347.93;;;10.98;73.26
77019;BME280;66044;53.142;17.962;2022-12-26T12:12:03;100346.09;;;10.93;73.72
77019;BME280;66044;53.142;17.962;2022-12-26T12:14:45;100350.65;;;10.89;73.92
77019;BME280;66044;53.142;17.962;2022-12-26T12:17:25;100351.92;;;10.88;74.00
77019;BME280;66044;53.142;17.962;2022-12-26T12:25:25;100346.23;;;10.82;74.28
77019;BME280;66044;53.142;17.962;2022-12-26T12:34:00;100352.02;;;10.72;74.48
77019;BME280;66044;53.142;17.962;2022-12-26T12:39:02;100353.65;;;10.68;74.49
77019;BME280;66044;53.142;17.962;2022-12-26T12:44:05;100347.60;;;10.66;74.54
77019;BME280;66044;53.142;17.962;2022-12-26T12:46:52;100338.55;;;10.64;74.35
77019;BME280;66044;53.142;17.962;2022-12-26T12:55:35;100335.88;;;10.66;73.90
77019;BME280;66044;53.142;17.962;2022-12-26T12:58:16;100328.23;;;10.65;73.91
77019;BME280;66044;53.142;17.962;2022-12-26T13:00:47;100328.84;;;10.65;73.86
77019;BME280;66044;53.142;17.962;2022-12-26T13:03:26;100331.77;;;10.68;73.58
77019;BME280;66044;53.142;17.962;2022-12-26T13:08:43;100330.95;;;10.73;73.38
77019;BME280;66044;53.142;17.962;2022-12-26T13:11:21;100332.60;;;10.72;73.51
77019;BME280;66044;53.142;17.962;2022-12-26T13:13:52;100327.02;;;10.70;73.13
77019;BME280;66044;53.142;17.962;2022-12-26T13:16:27;100326.13;;;10.69;73.42
77019;BME280;66044;53.142;17.962;2022-12-26T13:19:05;100326.23;;;10.67;73.12
77019;BME280;66044;53.142;17.962;2022-12-26T13:21:38;100325.35;;;10.68;73.21
77019;BME280;66044;53.142;17.962;2022-12-26T13:24:14;100324.49;;;10.70;73.00
77019;BME280;66044;53.142;17.962;2022-12-26T13:27:00;100324.50;;;10.71;73.13
77019;BME280;66044;53.142;17.962;2022-12-26T13:29:38;100317.02;;;10.70;73.07
77019;BME280;66044;53.142;17.962;2022-12-26T13:32:16;100320.52;;;10.69;73.16
77019;BME280;66044;53.142;17.962;2022-12-26T13:34:44;100320.58;;;10.70;72.88
77019;BME280;66044;53.142;17.962;2022-12-26T13:42:46;100348.07;;;10.71;73.08
77019;BME280;66044;53.142;17.962;2022-12-26T13:51:02;100359.36;;;10.69;72.67
77019;BME280;66044;53.142;17.962;2022-12-26T13:53:31;100355.79;;;10.70;72.79
77019;BME280;66044;53.142;17.962;2022-12-26T13:56:03;100364.67;;;10.69;72.88
77019;BME280;66044;53.142;17.962;2022-12-26T13:58:49;100366.14;;;10.67;72.61
77019;BME280;66044;53.142;17.962;2022-12-26T14:04:46;100361.27;;;10.62;73.02
77019;BME280;66044;53.142;17.962;2022-12-26T14:07:29;100354.59;;;10.66;72.96
77019;BME280;66044;53.142;17.962;2022-12-26T14:10:28;100349.52;;;10.68;72.87
77019;BME280;66044;53.142;17.962;2022-12-26T14:16:27;100357.77;;;10.64;72.89
77019;BME280;66044;53.142;17.962;2022-12-26T14:21:42;100359.79;;;10.59;72.72
77019;BME280;66044;53.142;17.962;2022-12-26T14:24:40;100370.77;;;10.61;73.14
77019;BME280;66044;53.142;17.962;2022-12-26T14:30:16;100385.70;;;10.58;73.12
77019;BME280;66044;53.142;17.962;2022-12-26T14:33:15;100386.84;;;10.53;73.12
77019;BME280;66044;53.142;17.962;2022-12-26T14:36:16;100384.27;;;10.49;73.11
77019;BME280;66044;53.142;17.962;2022-12-26T14:41:23;100379.87;;;10.51;73.07
77019;BME280;66044;53.142;17.962;2022-12-26T14:46:57;100370.08;;;10.45;73.10
77019;BME280;66044;53.142;17.962;2022-12-26T14:54:48;100366.36;;;10.47;73.06
77019;BME280;66044;53.142;17.962;2022-12-26T14:57:38;100368.65;;;10.46;73.14
77019;BME280;66044;53.142;17.962;2022-12-26T15:00:27;100379.21;;;10.43;73.05
77019;BME280;66044;53.142;17.962;2022-12-26T15:05:26;100387.48;;;10.38;73.10
77019;BME280;66044;53.142;17.962;2022-12-26T15:08:29;100390.86;;;10.40;73.02
77019;BME280;66044;53.142;17.962;2022-12-26T15:11:24;100392.61;;;10.44;72.97
77019;BME280;66044;53.142;17.962;2022-12-26T15:14:12;100393.54;;;10.44;72.94
77019;BME280;66044;53.142;17.962;2022-12-26T15:25:35;100394.63;;;10.30;73.01
77019;BME280;66044;53.142;17.962;2022-12-26T15:31:12;100391.36;;;10.28;73.18
77019;BME280;66044;53.142;17.962;2022-12-26T15:47:37;100395.89;;;10.28;73.16